Latest Weather Observations for Normanton

IDQ60801

Issued at 4:32 pm EST Saturday 25 February 2017 (issued every 30 minutes, with the page automatically refreshed every 10 minutes)

About weather observations | Map of weather stations | Latest weather observations for QLD | Other Formats
Station Details ID: 029063 Name: NORMANTON AIRPORT Lat: -17.69 Lon: 141.07 Height: 18.42 m
Data from the previous 72 hours. | See also: Recent months at Normanton
Date/Time
EST
Temp
°C
App
Temp
°C
Dew
Point
°C
Rel
Hum
%
Delta-T
°C
Wind Press
QNH
hPa
Press
MSL
hPa
Rain since
9am
mm
Dir  Spd
km/h
Gust
km/h
Spd
kts
Gust
kts
25/04:30pm 34.0 37.3 21.8 49 8.3 ESE 7 17 4 9 1006.7 - 0.0
25/04:00pm 34.2 39.0 22.9 51 7.8 SE 2 9 1 5 1006.9 - 0.0
25/03:30pm 33.5 37.4 22.6 53 7.5 ENE 6 13 3 7 1007.1 - 0.0
25/03:00pm 33.2 37.1 22.9 54 7.1 E 7 15 4 8 1007.5 1007.3 0.0
25/02:30pm 33.1 36.8 22.2 52 7.4 E 6 13 3 7 1008.0 - 0.0
25/02:00pm 33.1 37.3 22.5 53 7.3 ESE 4 15 2 8 1008.3 - 0.0
25/01:30pm 32.7 37.5 22.8 56 6.8 S 2 13 1 7 1008.7 - 0.0
25/01:00pm 32.6 37.3 22.7 56 6.8 ESE 2 11 1 6 1009.1 - 0.0
25/12:30pm 32.1 35.9 22.8 58 6.4 NE 7 11 4 6 1009.6 - 0.0
25/12:00pm 31.9 36.0 22.9 59 6.2 E 6 13 3 7 1010.2 1010.0 0.0
25/11:30am 31.2 35.4 24.1 66 4.9 NE 9 19 5 10 1010.8 - 0.0
25/11:00am 30.7 35.2 23.9 67 4.7 ENE 7 15 4 8 1011.2 - 0.0
25/10:30am 30.3 34.2 23.0 65 5.0 E 7 13 4 7 1011.3 - 0.0
25/10:00am 30.3 34.7 23.5 67 4.7 ENE 6 9 3 5 1011.2 - 0.0
25/09:30am 29.1 33.8 22.6 68 4.4 WSW 2 9 1 5 1011.3 - 0.0
25/09:00am 28.6 33.1 22.3 68 4.3 NE 2 7 1 4 1011.5 1011.3 0.0
25/08:30am 27.5 32.4 22.4 73 3.4 CALM 0 0 0 0 1011.5 - 0.0
25/08:00am 26.7 30.9 22.5 78 2.8 NNE 4 7 2 4 1011.4 - 0.0
25/07:30am 26.4 30.5 22.9 81 2.4 N 6 9 3 5 1011.4 - 0.0
25/07:00am 26.2 29.9 22.5 80 2.5 N 7 9 4 5 1011.3 - 0.0
25/06:30am 26.2 30.2 23.1 83 2.1 N 7 11 4 6 1011.0 - 0.0
25/06:00am 26.3 30.1 23.4 84 2.0 N 9 13 5 7 1010.5 1010.3 0.0
25/05:30am 26.2 29.9 23.3 84 2.0 NNE 9 13 5 7 1009.8 - 0.0
25/05:00am 26.0 30.3 23.7 87 1.6 N 7 9 4 5 1009.8 - 0.0
25/04:30am 26.1 30.1 23.8 87 1.6 N 9 11 5 6 1009.6 - 0.0
25/04:00am 26.2 30.4 24.1 88 1.4 N 9 11 5 6 1009.5 - 0.0
25/03:30am 26.4 30.2 24.1 87 1.6 N 11 15 6 8 1009.7 - 0.0
25/03:00am 26.6 30.5 24.3 87 1.6 N 11 15 6 8 1009.9 1009.7 0.0
25/02:30am 26.9 30.7 24.0 84 2.0 N 11 17 6 9 1010.2 - 0.0
25/02:00am 27.2 31.0 24.1 83 2.1 N 11 17 6 9 1010.3 - 0.0
25/01:30am 27.4 30.7 23.8 81 2.5 N 13 20 7 11 1010.3 - 0.0
25/01:00am 27.5 30.3 23.7 80 2.6 N 15 20 8 11 1010.2 - 0.0
25/12:30am 27.9 31.6 23.3 76 3.1 N 9 15 5 8 1010.4 - 0.0
25/12:00am 28.2 32.0 24.0 78 2.9 NNE 11 17 6 9 1010.5 1010.3 0.0
 
Date/Time
EST
Temp
°C
App
Temp
°C
Dew
Point
°C
Rel
Hum
%
Delta-T
°C
Wind Press
QNH
hPa
Press
MSL
hPa
Rain since
9am
mm
Dir  Spd
km/h
Gust
km/h
Spd
kts
Gust
kts
24/11:30pm 27.4 31.9 23.0 77 3.0 SW 4 9 2 5 1010.3 - 0.0
24/11:00pm 27.4 32.6 23.6 80 2.6 SW 2 7 1 4 1010.6 - 0.0
24/10:30pm 27.5 32.1 23.1 77 3.0 WSW 4 7 2 4 1010.7 - 0.0
24/10:00pm 27.4 31.5 22.3 73 3.4 WSW 4 7 2 4 1010.7 - 0.0
24/09:30pm 27.3 30.7 22.0 73 3.6 NNW 7 11 4 6 1011.1 - 0.0
24/09:00pm 27.3 29.0 20.1 64 4.7 NE 11 17 6 9 1011.1 1010.9 0.0
24/08:35pm 29.0 27.9 21.0 62 5.3 E 28 44 15 24 1010.8 - 0.0
24/08:30pm 30.8 34.3 24.2 68 4.6 S 13 15 7 8 1010.2 - 0.0
24/08:00pm 30.6 35.5 24.7 71 4.1 SSW 7 9 4 5 1009.5 - 0.0
24/07:30pm 31.3 35.7 23.4 63 5.5 S 6 7 3 4 1009.3 - 0.0
24/07:00pm 32.4 35.9 22.8 57 6.6 SSE 9 11 5 6 1008.6 - 0.0
24/06:30pm 33.5 36.1 22.0 51 7.8 SSE 11 19 6 10 1008.2 - 0.0
24/06:00pm 33.9 35.4 22.0 49 8.1 S 17 20 9 11 1007.8 1007.6 0.0
24/05:30pm 34.1 36.0 22.8 51 7.8 S 17 22 9 12 1007.6 - 0.0
24/05:00pm 34.4 36.1 23.1 51 7.8 S 19 28 10 15 1007.5 - 0.0
24/04:30pm 34.5 37.0 23.2 51 7.8 SSE 15 24 8 13 1007.7 - 0.0
24/04:00pm 34.5 36.8 23.5 52 7.7 S 17 24 9 13 1008.2 - 0.0
24/03:30pm 34.6 37.0 23.6 52 7.7 S 17 24 9 13 1008.7 - 0.0
24/03:00pm 34.2 37.7 24.2 56 7.0 S 13 20 7 11 1009.3 1009.2 0.0
24/02:30pm 34.0 37.9 24.3 57 6.8 SSW 11 20 6 11 1009.8 - 0.0
24/02:00pm 33.8 38.0 24.1 57 6.8 SSE 9 24 5 13 1010.2 - 0.0
24/01:30pm 33.2 37.3 23.2 55 6.9 SE 7 15 4 8 1010.6 - 0.0
24/01:00pm 32.7 37.2 23.6 58 6.3 ESE 6 11 3 6 1011.1 - 0.0
24/12:30pm 32.6 36.3 23.3 58 6.4 E 9 17 5 9 1011.7 - 0.0
24/12:00pm 32.7 37.2 23.9 60 6.1 ESE 7 13 4 7 1012.2 1012.1 0.0
24/11:30am 32.3 35.8 23.5 59 6.1 E 11 17 6 9 1012.7 - 0.0
24/11:00am 31.7 35.5 23.5 62 5.7 ESE 9 17 5 9 1012.9 - 0.0
24/10:30am 31.5 35.4 23.6 63 5.5 SE 9 19 5 10 1013.4 - 0.0
24/10:00am 30.9 34.7 23.5 64 5.1 SE 9 17 5 9 1013.5 - 0.0
24/09:30am 30.4 35.1 24.3 70 4.3 SSE 7 13 4 7 1013.4 - 0.0
24/09:00am 28.9 33.2 24.2 76 3.3 SSE 9 11 5 6 1013.3 1013.1 0.0
24/08:30am 29.1 32.7 24.4 76 3.3 SSE 13 17 7 9 1013.3 - 0.0
24/08:00am 28.3 33.0 24.9 82 2.4 SSE 9 15 5 8 1013.2 - 0.0
24/07:30am 27.4 32.3 25.2 88 1.5 S 9 13 5 7 1012.8 - 0.0
24/07:00am 26.3 31.4 25.6 96 0.5 S 9 11 5 6 1012.5 - 0.0
24/06:30am 26.2 32.0 25.7 97 0.4 S 6 7 3 4 1012.3 - 0.0
24/06:00am 26.4 33.4 25.9 97 0.4 CALM 0 0 0 0 1012.1 1011.9 0.0
24/05:30am 26.4 32.5 25.7 96 0.5 SE 4 6 2 3 1011.8 - 0.0
24/05:00am 26.5 32.2 25.6 95 0.6 SE 6 7 3 4 1011.3 - 0.0
24/04:30am 26.3 31.9 25.4 95 0.6 S 6 7 3 4 1011.0 - 0.0
24/04:00am 26.4 32.0 25.4 94 0.7 S 6 7 3 4 1010.9 - 0.0
24/03:30am 26.6 32.3 25.6 94 0.7 S 6 7 3 4 1011.0 - 0.0
24/03:00am 26.5 31.4 25.3 93 0.8 SSW 9 11 5 6 1011.0 1010.8 0.0
24/02:30am 26.6 31.6 25.4 93 0.8 S 9 13 5 7 1011.2 - 0.0
24/02:00am 26.7 31.6 25.3 92 1.0 SW 9 13 5 7 1011.4 - 0.0
24/01:30am 26.8 31.7 25.2 91 1.1 SW 9 11 5 6 1011.8 - 0.0
24/01:00am 26.9 31.8 25.3 91 1.1 SW 9 13 5 7 1012.0 - 0.0
24/12:30am 27.0 32.0 25.4 91 1.1 SW 9 11 5 6 1012.1 - 0.0
24/12:00am 27.1 31.7 25.3 90 1.3 WSW 11 15 6 8 1012.1 1011.9 0.0
 
Date/Time
EST
Temp
°C
App
Temp
°C
Dew
Point
°C
Rel
Hum
%
Delta-T
°C
Wind Press
QNH
hPa
Press
MSL
hPa
Rain since
9am
mm
Dir  Spd
km/h
Gust
km/h
Spd
kts
Gust
kts
23/11:30pm 27.3 31.3 25.1 88 1.5 WSW 13 17 7 9 1012.2 - 0.0
23/11:00pm 27.5 31.7 25.3 88 1.5 WSW 13 15 7 8 1012.4 - 0.0
23/10:30pm 27.7 32.4 25.5 88 1.5 WSW 11 15 6 8 1012.3 - 0.0
23/10:00pm 27.9 32.6 25.5 87 1.7 WSW 11 15 6 8 1012.4 - 0.0
23/09:30pm 28.4 32.8 25.6 85 2.0 W 13 19 7 10 1012.2 - 0.0
23/09:00pm 28.5 34.5 26.3 88 1.6 WNW 7 9 4 5 1011.8 1011.6 0.0
23/08:30pm 29.2 34.5 25.0 78 2.9 S 6 7 3 4 1011.5 - 0.0
23/08:00pm 29.0 35.0 24.3 76 3.3 CALM 0 0 0 0 1011.1 - 0.0
23/07:30pm 29.4 35.8 24.9 77 3.2 CALM 0 0 0 0 1010.9 - 0.0
23/07:00pm 30.0 36.5 25.1 75 3.4 CALM 0 0 0 0 1010.5 - 0.0
23/06:30pm 30.9 35.6 24.3 68 4.6 SSE 7 7 4 4 1010.1 - 0.0
23/06:00pm 31.3 35.5 23.4 63 5.5 SSE 7 11 4 6 1009.7 1009.5 0.0
23/05:30pm 31.6 35.7 23.2 61 5.8 ESE 7 9 4 5 1009.5 - 0.0
23/05:00pm 31.9 38.0 24.5 65 5.2 CALM 0 0 0 0 1009.4 - 0.0
23/04:30pm 31.8 36.5 23.9 63 5.5 WNW 6 9 3 5 1009.5 - 0.0
23/04:00pm 31.8 36.0 23.1 60 6.0 NNW 6 11 3 6 1009.7 - 0.0
23/03:30pm 31.8 36.5 23.9 63 5.5 N 6 9 3 5 1010.1 - 0.0
23/03:00pm 32.0 36.4 23.5 60 5.9 NNE 6 15 3 8 1010.1 1009.9 0.0
23/02:30pm 31.8 35.3 22.8 59 6.2 NNE 9 13 5 7 1010.4 - 0.0
23/02:00pm 31.6 34.7 22.9 60 6.0 NNE 11 15 6 8 1010.7 - 0.0
23/01:30pm 31.4 34.7 23.2 61 5.7 NE 11 19 6 10 1011.0 - 0.0
23/01:00pm 31.3 34.9 23.1 61 5.6 NNE 9 15 5 8 1011.5 - 0.0
23/12:30pm 31.1 34.3 23.0 62 5.6 NNE 11 17 6 9 1011.9 - 0.0
23/12:00pm 30.7 34.1 23.4 65 5.0 NNE 11 17 6 9 1012.1 1011.9 0.0
23/11:30am 30.1 32.9 23.0 65 4.9 NNE 13 20 7 11 1012.3 - 0.0
23/11:00am 29.6 32.1 23.1 68 4.5 NE 15 22 8 12 1012.7 - 0.0
23/10:30am 29.1 31.6 23.1 70 4.1 NE 15 22 8 12 1012.8 - 0.0
23/10:00am 28.6 32.2 23.7 75 3.4 NE 11 17 6 9 1013.0 - 0.0
23/09:30am 27.9 30.9 23.3 76 3.1 NE 13 22 7 12 1013.2 - 0.0
23/09:00am 28.7 32.1 24.0 76 3.3 ENE 13 20 7 11 1013.2 1013.0 11.4
23/08:30am 27.8 31.2 24.0 80 2.6 ENE 13 20 7 11 1012.9 - 11.4
23/08:00am 26.9 30.5 24.4 86 1.7 ENE 13 20 7 11 1012.5 - 11.4
23/07:30am 25.6 28.7 23.6 89 1.4 ENE 13 20 7 11 1012.2 - 11.4
23/07:00am 25.0 29.0 23.8 93 0.8 E 9 17 5 9 1011.9 - 11.4
23/06:30am 25.0 28.6 23.8 93 0.8 E 11 19 6 10 1011.9 - 11.4
23/06:00am 25.1 28.8 23.9 93 0.8 E 11 19 6 10 1011.5 1011.3 11.4
23/05:30am 25.2 29.1 24.2 94 0.7 E 11 17 6 9 1010.9 - 11.4
23/05:00am 25.0 29.1 24.0 94 0.7 ENE 9 17 5 9 1010.5 - 11.4
23/04:30am 25.0 28.8 24.0 94 0.7 E 11 17 6 9 1010.2 - 11.4
23/04:00am 25.1 28.5 24.1 94 0.7 E 13 20 7 11 1009.8 - 11.4
23/03:30am 25.1 29.3 24.1 94 0.7 E 9 15 5 8 1009.9 - 11.4
23/03:00am 25.1 29.3 24.1 94 0.7 E 9 15 5 8 1010.1 1009.9 11.4
23/02:30am 25.2 29.7 24.0 93 0.8 E 7 11 4 6 1010.6 - 11.4
23/02:00am 25.2 29.5 24.2 94 0.7 E 9 15 5 8 1010.9 - 11.4
23/01:30am 25.3 29.9 24.1 93 0.8 E 7 11 4 6 1010.9 - 11.4
23/01:00am 25.4 29.7 24.2 93 0.8 E 9 15 5 8 1011.3 - 11.4
23/12:30am 25.5 30.2 24.3 93 0.8 ENE 7 11 4 6 1011.4 - 11.4
23/12:00am 25.8 30.4 24.8 94 0.7 E 9 17 5 9 1011.4 1011.2 11.4
 
Date/Time
EST
Temp
°C
App
Temp
°C
Dew
Point
°C
Rel
Hum
%
Delta-T
°C
Wind Press
QNH
hPa
Press
MSL
hPa
Rain since
9am
mm
Dir  Spd
km/h
Gust
km/h
Spd
kts
Gust
kts
22/11:30pm 25.9 30.6 25.0 95 0.6 ENE 9 13 5 7 1011.3 - 11.4
22/11:00pm 26.0 30.4 25.1 95 0.6 E 11 17 6 9 1011.5 - 11.4
22/10:30pm 26.1 31.2 25.6 97 0.4 E 9 13 5 7 1011.6 - 11.4
22/10:00pm 26.0 32.0 25.5 97 0.4 E 4 7 2 4 1011.7 - 11.4
22/09:30pm 26.0 31.6 25.5 97 0.4 E 6 9 3 5 1011.3 - 11.4
22/09:00pm 25.7 31.9 25.2 97 0.3 E 2 0 1 0 1011.0 1010.7 11.4
22/08:30pm 25.6 31.0 25.1 97 0.3 SE 6 7 3 4 1010.4 - 11.4
22/08:00pm 25.5 30.5 24.8 96 0.5 ESE 7 11 4 6 1009.7 - 11.0
22/07:30pm 25.3 30.3 24.8 97 0.3 E 7 9 4 5 1009.6 - 11.0
22/07:00pm 25.1 29.5 24.4 96 0.5 E 9 13 5 7 1009.6 - 11.0
22/06:30pm 24.8 30.7 24.1 96 0.5 CALM 0 6 0 3 1008.8 - 11.0
22/06:02pm 24.4 29.0 23.2 93 0.8 SW 4 9 2 5 1008.7 - 11.0
22/06:00pm 24.6 30.0 23.2 92 1.0 CALM 0 9 0 5 1008.7 1008.5 11.0
22/05:40pm 24.3 24.6 21.6 85 1.8 NNE 22 41 12 22 1009.0 - 8.4
22/05:30pm 28.1 34.1 24.9 83 2.2 SSE 2 7 1 4 1008.3 - 4.8
22/05:00pm 28.1 32.5 24.5 81 2.5 SE 9 15 5 8 1008.3 - 4.8

Other Formats:

Comma delimited format used in spreadsheet applications
http://www.bom.gov.au/fwo/IDQ60801/IDQ60801.94266.axf

JavaScript Object Notation format (JSON) in row-major order
http://www.bom.gov.au/fwo/IDQ60801/IDQ60801.94266.json